Terminal Aerodrome Forecast
Issued by NWS

Home | Current Version | Previous Version | Text Only | Print | Product List | Glossary On
Versions: 1 2 3 4 5 6 7 8 9 10 11 12
838
FTUS45 KABQ 271740
TAFFMN
TAF
KFMN 271740Z 2718/2818 28019G28KT P6SM SCT080
     FM280130 31009KT P6SM FEW110
     FM280500 VRB05KT P6SM FEW120=

USA.gov is the U.S. government's official web portal to all federal, state and local government web resources and services.